Sebec Lake, Maine
Current Conditions -  °F | °C
As of 6:53 AM on Wednesday 26 Nov 2014 (Local Time) from KMLT Reporting Station
Scattered Clouds Scattered Clouds  
Wind Chill: 37°   Ceiling: Unl
Heat Index: 37°   Visibility: 10mi
Dew Point: 22°   Wind: 0mph
Humidity: 54%   Direction: NA
Pressure: 30.18"   Gusts: NA
Location:  45.2997°N, 69.3389°W
Report Text: KMLT 261153Z AUTO 00000KT 10SM SCT041 03/M06 A3018 RMK AO2 SLP228 T00281056 10072 20028 51028
Loading
Personal Weather Stations






























Interactive Weather Map New forecast layout! Learn more

10-Day Weather Forecast

Advertisements
Track Severe Weather on mobile